< < Back
Terminal Aerodrome Forecast


Current Version              Previous Versions:   1  2  3  4  5  6  7  8  9  

Terminal Aerodrome Forecast

992
FTUS42 KFFC 151700
TAFATL
TAF
KATL 151721Z 1518/1624 13006KT P6SM BKN015
     FM152000 16006KT P6SM BKN025
     FM152200 22006KT P6SM VCSH SCT030 BKN050
      TEMPO 1601/1604 4SM -TSRA BKN025CB
     FM160600 25005KT 5SM BR VCSH BKN025
     FM161200 32007KT 6SM BR BKN015
     FM161500 33008KT P6SM SCT025 BKN040
     FM161800 33011KT P6SM SCT050 BKN100=



Latest METAR

114
SAUS70 KWBC 160100 RRC
MTRATL
METAR KATL 160052Z 00000KT 9SM -RA FEW013 SCT055 BKN090 OVC150 23/21
A3013 RMK AO2 SLP197 P0002 T02330211


USA.gov is the U.S. government's official web portal to all federal, state and local government web resources and services.